Create Custom Reports and Graphics: Custom Report

Kelseyville Remote

Current Conditions

5/17/22 8:30 PM (-07:00)
Updated Every 15 Minutes
Temp 68.0 °F   6.0
RH 39 %   14
Dew Pt 42.3 °F   2.7
Wet Bulb 53.7 °F   0.8
BatVolt 13.1 V   0.0
Monthly Rain 0.02 In
Seasonal Rainfall 14.55 In

Today & Yesterday

Kelseyville Remote

5/17/22 8:30 PM (-07:00)
Updated Every 15 Minutes
Daily Max Temp 83.0 °F   6.3
Time of Max Temp 1516
Daily Min Temp 39.3 °F   3.2
Time of Min Temp 0612
Daily Rain 0.00 In
Yest MaxT 76.7 °F
Yest MinT 42.5 °F
Yest Rain 0.00 In

Last 7 Days

Kelseyville Remote

Hourly Data | America/Los_Angeles
as of 5/17/22 8:32 PM PDT
Date & Time Temp (°F) RH (%) Dew Pt (°F) Wet Bulb (°F) BatVolt (V) Latest Rain (In) Daily Rain (In) Daily Min Temp (°F) Daily Max Temp (°F)
5/17/22 - 2000 74.7 30 41.6 55.4 13.3 0.00 0.00 39.3 83.0
5/17/22 - 1900 78.6 27 41.8 56.5 13.5 0.00 0.00 39.3 83.0
5/17/22 - 1800 80.5 26 42.6 57.3 13.5 0.00 0.00 39.3 83.0
5/17/22 - 1700 80.4 25 41.8 57.0 13.5 0.00 0.00 39.3 83.0
5/17/22 - 1600 82.0 22 38.9 56.3 13.5 0.00 0.00 39.3 83.0
5/17/22 - 1500 81.2 25 41.3 57.0 13.5 0.00 0.00 39.3 82.6
5/17/22 - 1400 78.5 33 47.2 58.9 13.6 0.00 0.00 39.3 79.9
5/17/22 - 1300 75.2 31 42.6 56.0 13.6 0.00 0.00 39.3 77.5
5/17/22 - 1200 70.3 34 40.3 53.6 13.6 0.00 0.00 39.3 72.9
5/17/22 - 1100 67.2 44 44.5 54.5 13.7 0.00 0.00 39.3 67.9
5/17/22 - 1000 63.9 52 45.8 54.0 13.8 0.00 0.00 39.3 65.9
5/17/22 - 0900 59.7 58 44.8 51.9 13.8 0.00 0.00 39.3 61.4
5/17/22 - 0800 53.4 65 41.8 47.8 13.9 0.00 0.00 39.3 59.2
5/17/22 - 0700 42.2 84 37.8 40.4 13.3 0.00 0.00 39.3 49.2
5/17/22 - 0600 40.1 86 36.2 38.5 12.8 0.00 0.00 39.5 49.2
5/17/22 - 0500 41.0 86 37.2 39.5 12.8 0.00 0.00 40.2 49.2
5/17/22 - 0400 42.1 85 38.0 40.5 12.8 0.00 0.00 41.3 49.2
5/17/22 - 0300 43.2 83 38.4 41.2 12.9 0.00 0.00 42.4 49.2
5/17/22 - 0200 46.7 78 40.3 43.9 12.9 0.00 0.00 44.0 49.2
5/17/22 - 0100 50.4 72 41.8 46.5 12.9 0.00 0.00 42.5 76.7
5/17/22 - 0000 51.7 71 42.4 47.4 13.0 0.00 0.00 42.5 76.7
5/16/22 - 2300 53.8 67 43.0 48.6 13.0 0.00 0.00 42.5 76.7
5/16/22 - 2200 57.2 60 43.6 50.4 13.0 0.00 0.00 42.5 76.7
5/16/22 - 2100 61.7 54 44.8 52.7 13.1 0.00 0.00 42.5 76.7
5/16/22 - 2000 66.7 46 45.4 54.8 13.3 0.00 0.00 42.5 76.7
5/16/22 - 1900 71.0 41 46.4 56.6 13.6 0.00 0.00 42.5 76.7
5/16/22 - 1800 73.3 39 47.2 57.6 13.6 0.00 0.00 42.5 76.7
5/16/22 - 1700 74.8 37 47.0 57.9 13.6 0.00 0.00 42.5 76.7
5/16/22 - 1600 75.9 33 44.4 57.0 13.6 0.00 0.00 42.5 76.7
5/16/22 - 1500 75.6 33 44.4 56.9 13.6 0.00 0.00 42.5 76.7
5/16/22 - 1400 73.6 33 42.8 55.6 13.6 0.00 0.00 42.5 74.6
5/16/22 - 1300 72.1 38 45.2 56.3 13.6 0.00 0.00 42.5 73.8
5/16/22 - 1200 68.1 48 47.7 56.4 13.6 0.00 0.00 42.5 71.3
5/16/22 - 1100 63.7 56 47.6 54.9 13.7 0.00 0.00 42.5 65.9
5/16/22 - 1000 62.2 58 47.0 54.1 13.7 0.00 0.00 42.5 63.7
5/16/22 - 0900 60.6 56 44.8 52.3 13.8 0.00 0.00 42.5 62.4
5/16/22 - 0800 55.6 64 43.5 49.6 13.9 0.00 0.00 42.5 59.7
5/16/22 - 0700 46.3 80 40.5 43.8 13.3 0.00 0.00 42.5 51.4
5/16/22 - 0600 44.2 83 39.4 42.2 12.7 0.00 0.00 42.5 50.1
5/16/22 - 0500 44.7 80 38.9 42.2 12.8 0.00 0.00 44.0 50.1
5/16/22 - 0400 45.6 76 38.7 42.6 12.8 0.00 0.00 44.9 50.1
5/16/22 - 0300 46.9 73 38.8 43.3 12.9 0.00 0.00 45.6 50.1
5/16/22 - 0200 48.9 62 36.3 43.2 12.9 0.00 0.00 47.2 50.1
5/16/22 - 0100 50.8 53 34.3 43.4 12.9 0.00 0.00 46.0 79.9
5/16/22 - 0000 54.6 43 32.8 44.6 13.0 0.00 0.00 46.0 79.9
5/15/22 - 2300 57.6 39 32.8 45.9 13.0 0.00 0.00 46.0 79.9
5/15/22 - 2200 60.0 38 34.2 47.4 13.0 0.00 0.00 46.0 79.9
5/15/22 - 2100 63.0 39 37.7 50.0 13.0 0.00 0.00 46.0 79.9
5/15/22 - 2000 68.8 34 39.0 52.5 13.3 0.00 0.00 46.0 79.9
5/15/22 - 1900 71.5 29 37.2 52.7 13.6 0.00 0.00 46.0 79.9
5/15/22 - 1800 73.0 32 41.4 54.9 13.6 0.00 0.00 46.0 79.9
5/15/22 - 1700 75.4 35 45.8 57.5 13.6 0.00 0.00 46.0 79.9
5/15/22 - 1600 77.2 33 45.5 57.8 13.6 0.00 0.00 46.0 79.9
5/15/22 - 1500 78.3 35 48.2 59.4 13.6 0.00 0.00 46.0 79.9
5/15/22 - 1400 78.0 37 50.0 60.2 13.6 0.00 0.00 46.0 79.9
5/15/22 - 1300 78.6 38 51.0 60.9 13.5 0.00 0.00 46.0 79.9
5/15/22 - 1200 76.6 44 52.8 61.5 13.6 0.00 0.00 46.0 77.8
5/15/22 - 1100 73.2 49 52.8 60.7 13.6 0.00 0.00 46.0 75.2
5/15/22 - 1000 70.2 54 52.7 59.9 13.7 0.00 0.00 46.0 71.8
5/15/22 - 0900 67.3 57 51.4 58.2 13.7 0.00 0.00 46.0 69.6
5/15/22 - 0800 59.4 68 48.7 53.9 13.8 0.00 0.00 46.0 64.9
5/15/22 - 0700 48.9 83 43.9 46.8 13.2 0.00 0.00 46.0 54.0
5/15/22 - 0600 47.1 86 43.0 45.5 12.8 0.00 0.00 46.0 54.0
5/15/22 - 0500 48.4 85 44.2 46.8 12.8 0.00 0.00 47.6 54.0
5/15/22 - 0400 49.0 83 44.0 46.9 12.9 0.00 0.00 48.0 54.0
5/15/22 - 0300 50.8 81 45.3 48.5 12.9 0.00 0.00 49.7 54.0
5/15/22 - 0200 52.6 76 45.4 49.4 12.9 0.00 0.00 51.6 54.0
5/15/22 - 0100 55.5 71 46.3 51.0 13.0 0.00 0.00 40.8 84.5
5/15/22 - 0000 57.9 69 47.7 52.8 13.0 0.00 0.00 40.8 84.5
5/14/22 - 2300 61.7 61 48.2 54.6 13.0 0.00 0.00 40.8 84.5
5/14/22 - 2200 65.0 55 48.2 55.7 13.0 0.00 0.00 40.8 84.5
5/14/22 - 2100 71.3 44 48.5 57.7 13.0 0.00 0.00 40.8 84.5
5/14/22 - 2000 76.8 38 49.2 59.5 13.2 0.00 0.00 40.8 84.5
5/14/22 - 1900 80.3 34 49.4 60.4 13.4 0.00 0.00 40.8 84.5
5/14/22 - 1800 82.9 32 49.7 61.0 13.5 0.00 0.00 40.8 84.5
5/14/22 - 1700 83.5 26 45.3 59.1 13.4 0.00 0.00 40.8 84.5
5/14/22 - 1600 82.9 24 42.4 57.8 13.5 0.00 0.00 40.8 83.7
5/14/22 - 1500 81.3 23 39.6 56.3 13.5 0.00 0.00 40.8 83.2
5/14/22 - 1400 79.1 21 35.2 54.3 13.6 0.00 0.00 40.8 80.3
5/14/22 - 1300 75.8 32 43.4 56.6 13.6 0.00 0.00 40.8 77.5
5/14/22 - 1200 72.9 41 47.8 57.8 13.6 0.00 0.00 40.8 74.7
5/14/22 - 1100 69.0 51 50.0 57.9 13.6 0.00 0.00 40.8 70.9
5/14/22 - 1000 64.7 59 49.9 56.5 13.7 0.00 0.00 40.8 67.2
5/14/22 - 0900 63.0 60 49.0 55.4 13.8 0.00 0.00 40.8 64.8
5/14/22 - 0800 55.4 72 46.5 51.2 13.9 0.00 0.00 40.8 60.0
5/14/22 - 0700 45.8 89 42.7 44.6 13.2 0.00 0.00 40.8 51.7
5/14/22 - 0600 41.9 90 39.2 40.9 12.8 0.00 0.00 40.8 51.7
5/14/22 - 0500 43.6 90 40.8 42.6 12.8 0.00 0.00 42.5 51.7
5/14/22 - 0400 45.3 89 42.3 44.2 12.8 0.00 0.00 43.9 51.7
5/14/22 - 0300 47.8 86 43.9 46.3 12.9 0.00 0.00 46.0 51.7
5/14/22 - 0200 50.3 83 45.3 48.3 12.9 0.00 0.00 48.9 51.7
5/14/22 - 0100 52.1 81 46.4 49.7 13.0 0.00 0.00 37.0 74.3
5/14/22 - 0000 54.5 77 47.3 51.2 13.0 0.00 0.00 37.0 74.3
5/13/22 - 2300 57.6 70 47.9 52.9 13.0 0.00 0.00 37.0 74.3
5/13/22 - 2200 60.6 65 48.7 54.5 13.0 0.00 0.00 37.0 74.3
5/13/22 - 2100 63.9 60 49.8 56.2 13.0 0.00 0.00 37.0 74.3
5/13/22 - 2000 68.5 51 49.9 57.7 13.2 0.00 0.00 37.0 74.3
5/13/22 - 1900 71.3 46 49.4 58.2 13.6 0.00 0.00 37.0 74.3
5/13/22 - 1800 73.1 41 48.4 58.2 13.6 0.00 0.00 37.0 74.3
5/13/22 - 1700 73.1 43 49.0 58.5 13.6 0.00 0.00 37.0 74.3
5/13/22 - 1600 73.0 41 48.2 58.1 13.6 0.00 0.00 37.0 74.3
5/13/22 - 1500 72.4 43 48.6 58.1 13.6 0.00 0.00 37.0 73.3
5/13/22 - 1400 71.4 45 48.8 58.0 13.6 0.00 0.00 37.0 72.5
5/13/22 - 1300 70.1 47 48.8 57.6 13.6 0.00 0.00 37.0 71.5
5/13/22 - 1200 66.5 51 47.8 56.0 13.7 0.00 0.00 37.0 68.8
5/13/22 - 1100 62.9 56 46.9 54.2 13.7 0.00 0.00 37.0 64.5
5/13/22 - 1000 62.0 54 45.1 53.0 13.7 0.00 0.00 37.0 63.5
5/13/22 - 0900 57.8 57 42.5 50.0 13.8 0.00 0.00 37.0 61.8
5/13/22 - 0800 50.9 67 40.2 45.9 14.0 0.00 0.00 37.0 55.3
5/13/22 - 0700 40.6 85 36.4 38.9 13.2 0.00 0.00 37.0 45.8
5/13/22 - 0600 38.0 87 34.5 36.6 12.8 0.00 0.00 37.0 43.0
5/13/22 - 0500 39.2 85 35.0 37.5 12.8 0.00 0.00 38.6 43.0
5/13/22 - 0400 39.9 84 35.5 38.1 12.8 0.00 0.00 39.2 43.0
5/13/22 - 0300 40.8 83 36.1 38.9 12.9 0.00 0.00 40.0 43.0
5/13/22 - 0200 41.9 82 36.8 39.8 12.9 0.00 0.00 41.2 43.0
5/13/22 - 0100 44.2 77 37.5 41.4 12.9 0.00 0.00 34.2 65.5
5/13/22 - 0000 49.2 66 38.4 44.3 13.0 0.00 0.00 34.2 65.5
5/12/22 - 2300 50.7 64 39.0 45.3 13.0 0.00 0.00 34.2 65.5
5/12/22 - 2200 52.8 61 39.6 46.6 13.0 0.00 0.00 34.2 65.5
5/12/22 - 2100 54.9 56 39.4 47.4 13.1 0.00 0.00 34.2 65.5
5/12/22 - 2000 58.9 48 39.2 49.0 13.3 0.00 0.00 34.2 65.5
5/12/22 - 1900 62.3 42 38.8 50.2 13.7 0.00 0.00 34.2 65.5
5/12/22 - 1800 64.1 39 38.4 50.7 13.7 0.00 0.00 34.2 65.5
5/12/22 - 1700 64.5 36 36.7 50.1 13.7 0.00 0.00 34.2 65.5
5/12/22 - 1600 64.8 35 36.4 50.1 13.7 0.00 0.00 34.2 65.5
5/12/22 - 1500 64.0 36 36.8 50.0 13.7 0.00 0.00 34.2 65.5
5/12/22 - 1400 62.5 38 36.7 49.4 13.7 0.00 0.00 34.2 63.9
5/12/22 - 1300 59.9 40 35.4 47.8 13.7 0.00 0.00 34.2 61.8
5/12/22 - 1200 56.1 48 36.4 46.6 13.8 0.00 0.00 34.2 58.4
5/12/22 - 1100 53.4 50 35.3 45.0 13.8 0.00 0.00 34.2 55.4
5/12/22 - 1000 50.8 55 35.4 43.8 13.9 0.00 0.00 34.2 52.3
5/12/22 - 0900 49.2 61 36.4 43.4 13.9 0.00 0.00 34.2 50.1
5/12/22 - 0800 43.4 76 36.2 40.3 14.0 0.00 0.00 34.2 48.1
5/12/22 - 0700 36.4 86 32.6 34.9 13.6 0.00 0.00 34.2 39.9
5/12/22 - 0600 35.4 84 30.9 33.6 12.8 0.00 0.00 34.2 39.9
5/12/22 - 0500 35.9 79 30.0 33.6 12.8 0.00 0.00 34.6 39.9
5/12/22 - 0400 36.7 75 29.7 33.9 12.8 0.00 0.00 35.2 39.9
5/12/22 - 0300 37.0 76 30.1 34.2 12.9 0.00 0.00 35.2 39.9
5/12/22 - 0200 39.2 73 31.3 36.0 12.9 0.00 0.00 38.7 39.9
5/12/22 - 0100 39.9 75 32.6 36.9 12.9 0.00 0.00 30.6 78.0
5/12/22 - 0000 41.5 73 33.6 38.2 13.0 0.00 0.00 30.6 78.0
5/11/22 - 2300 45.5 67 35.1 41.0 13.0 0.00 0.00 30.6 78.0
5/11/22 - 2200 47.7 64 36.0 42.5 13.0 0.00 0.00 30.6 78.0
5/11/22 - 2100 50.7 60 37.2 44.5 13.0 0.00 0.00 30.6 78.0
5/11/22 - 2000 55.3 49 36.5 46.3 13.3 0.00 0.00 30.6 78.0
5/11/22 - 1900 59.5 42 36.4 48.0 13.7 0.00 0.00 30.6 78.0
5/11/22 - 1800 62.3 37 35.7 48.9 13.7 0.00 0.00 30.6 78.0
5/11/22 - 1700 64.2 34 35.1 49.4 13.7 0.00 0.00 30.6 78.0
5/11/22 - 1600 64.8 29 31.8 48.5 13.7 0.00 0.00 30.6 78.0
5/11/22 - 1500 64.5 28 31.0 48.1 13.7 0.00 0.00 30.6 78.0
5/11/22 - 1400 63.0 32 32.7 48.1 13.7 0.00 0.00 30.6 78.0
5/11/22 - 1300 61.8 32 31.9 47.4 13.7 0.00 0.00 30.6 62.9
5/11/22 - 1200 59.0 36 31.7 46.2 13.8 0.00 0.00 30.6 60.5
5/11/22 - 1100 55.1 46 34.7 45.5 13.8 0.00 0.00 30.6 57.8
5/11/22 - 1000 52.0 53 35.4 44.4 13.9 0.00 0.00 30.6 53.0
5/11/22 - 0900 48.3 60 35.0 42.4 14.0 0.00 0.00 30.6 51.5
5/11/22 - 0800 41.2 75 33.7 38.1 14.1 0.00 0.00 30.6 46.0
5/11/22 - 0700 33.3 90 30.5 32.2 13.2 0.00 0.00 30.6 36.7
5/11/22 - 0600 31.3 90 28.8 30.3 12.8 0.00 0.00 30.6 35.6
5/11/22 - 0500 31.7 90 29.0 30.6 12.8 0.00 0.00 31.2 35.6
5/11/22 - 0400 32.0 88 28.9 30.7 12.8 0.00 0.00 31.2 35.6
5/11/22 - 0300 33.4 88 30.2 32.2 12.9 0.00 0.00 32.6 35.6
5/11/22 - 0200 34.4 86 30.5 32.8 12.9 0.00 0.00 33.4 35.6
5/11/22 - 0100 36.4 84 31.9 34.6 12.9 0.00 0.00 30.8 59.0
5/11/22 - 0000 37.4 82 32.5 35.4 13.0 0.00 0.00 30.8 59.0
5/10/22 - 2300 39.0 75 31.6 36.0 13.0 0.00 0.00 30.8 59.0
5/10/22 - 2200 44.0 64 32.7 39.3 13.0 0.00 0.00 30.8 59.0
5/10/22 - 2100 47.4 59 33.6 41.4 13.1 0.00 0.00 30.8 59.0
Max 83.5 90 52.8 61.5 14.1 0.00 0.00 51.6 84.5
Avg 57.9 57 40.8 48.7 13.3 0.00 - - -
Min 31.3 21 28.8 30.3 12.7 0.00 0.00 30.6 35.6
Total - - - - - 0.00 - - -